Accueil
METAR-TAF:

METAR-TAF

Aéroports :

Dobbiaco, Italie

latitude: 46-44N, longitude: 012-13E, altitude: 1222 m

Observation

Le bulletin a été fait il y a 10 heures et 8 minutes, à 17:55 UTC
Vent calme
Température 1°C
Humidité 93%
Pression 1020 hPa
Visibilité 10 km ou plus
pas de nuages en-dessous de 1500 mètres et pas de cumulonimbus.

METAR: LIVD 241755Z 00000KT CAVOK 01/00 Q1020 RMK OVC OVC220 VIS MIN 9999

Heure: 05:03 (04:03 UTC)


TAF: absent

Observations et prévisions météorologiques de plus de 4000 aéroports (messages METAR et TAF).

Les stations disponibles sont représentées par des disques jaunes et rouges sur la carte.

Passer la souris dessus pour voir le nom de la station.

Cliquer dessus pour voir les observations et prévisions météorologiques.

Pour changer de carte: cliquez sur les boutons verts avec une croix noire pour zoomer, sur le bouton vert avec un tiret pour effectuer un zoom arrière, ou sur les flèches vertes pour les cartes adjacentes.


METAR-TAF: